Schedule Details


Flight Number: CTN399
Departure: Tessera (LIPZ) at 19:40
Arrival: Cilipi (LDDU) at 21:00
Route: ROTAR?P11?PUL?N606?ZDA?L607?NERRA

Weather Information
LIPZ 172320Z 11005KT CAVOK 24/20 Q1017 NOSIG
LDDU 172300Z 09005KT CAVOK 20/17 Q1018
Schedule Frequency

Route Map